createdAt,value
2018-12-21T00:00:51.239Z,86.85
2018-12-21T00:01:51.247Z,86.85
2018-12-21T00:02:51.276Z,86.85
2018-12-21T00:03:51.026Z,87.04
2018-12-21T00:04:51.042Z,86.85
2018-12-21T00:05:51.062Z,86.71
2018-12-21T00:06:51.083Z,86.9
2018-12-21T00:07:51.108Z,86.8
2018-12-21T00:08:51.385Z,86.99
2018-12-21T00:09:51.148Z,86.71
2018-12-21T00:10:51.158Z,87.09
2018-12-21T00:11:51.173Z,87.09
2018-12-21T00:12:51.199Z,87.23
2018-12-21T00:13:51.206Z,86.9
2018-12-21T00:14:51.226Z,87.09
2018-12-21T00:15:51.256Z,87.19
2018-12-21T00:16:51.272Z,87.47
2018-12-21T00:17:51.284Z,87.47
2018-12-21T00:18:51.301Z,87.09
2018-12-21T00:19:51.573Z,87.38
2018-12-21T00:20:51.596Z,87.19
2018-12-21T00:21:51.361Z,86.71
2018-12-21T00:22:51.637Z,87.09
2018-12-21T00:23:51.397Z,87.47
2018-12-21T00:24:51.666Z,87.47
2018-12-21T00:25:51.688Z,86.9
2018-12-21T00:26:51.704Z,87.28
2018-12-21T00:27:51.723Z,87.47
2018-12-21T00:28:51.487Z,87.09
2018-12-21T00:29:51.759Z,87.47
2018-12-21T00:30:51.780Z,87.19
2018-12-21T00:31:51.790Z,87.28
2018-12-21T00:32:51.826Z,87.19
2018-12-21T00:33:51.831Z,87.09
2018-12-21T00:34:51.592Z,87.19
2018-12-21T00:35:51.867Z,87.19
2018-12-21T00:36:51.626Z,87.19
2018-12-21T00:37:51.643Z,87.09
2018-12-21T00:38:51.670Z,87.19
2018-12-21T00:39:51.783Z,87.47
2018-12-21T00:40:51.701Z,87.66
2018-12-21T00:41:51.721Z,87.57
2018-12-21T00:42:51.742Z,87.66
2018-12-21T00:43:51.757Z,87.09
2018-12-21T00:44:51.772Z,87.47
2018-12-21T00:45:52.059Z,87.47
2018-12-21T00:46:51.816Z,87.57
2018-12-21T00:47:51.829Z,87.85
2018-12-21T00:48:51.848Z,87.47
2018-12-21T00:49:51.869Z,87.38
2018-12-21T00:50:51.894Z,87.66
2018-12-21T00:51:51.899Z,87.57
2018-12-21T00:52:51.925Z,87.85
2018-12-21T00:53:51.948Z,87.95
2018-12-21T00:54:51.957Z,87.57
2018-12-21T00:55:51.982Z,87.38
2018-12-21T00:56:51.996Z,87.47
2018-12-21T00:57:52.017Z,87.85
2018-12-21T00:58:52.036Z,88.04
2018-12-21T00:59:52.047Z,87.76
2018-12-21T01:00:52.338Z,87.57
2018-12-21T01:01:52.343Z,88.04
2018-12-21T01:02:52.100Z,87.57
2018-12-21T01:03:52.121Z,87.47
2018-12-21T01:04:52.140Z,87.47
2018-12-21T01:05:52.160Z,88.04
2018-12-21T01:06:52.194Z,87.8
2018-12-21T01:07:52.202Z,87.47
2018-12-21T01:08:52.482Z,87.66
2018-12-21T01:09:52.230Z,87.47
2018-12-21T01:10:52.248Z,87.38
2018-12-21T01:11:52.527Z,87.47
2018-12-21T01:12:52.541Z,87.28
2018-12-21T01:13:52.561Z,87.47
2018-12-21T01:14:52.579Z,87.47
2018-12-21T01:15:52.341Z,87.38
2018-12-21T01:16:52.620Z,87.47
2018-12-21T01:17:52.378Z,87.57
2018-12-21T01:18:52.395Z,88.04
2018-12-21T01:19:52.415Z,87.95
2018-12-21T01:20:52.438Z,87.95
2018-12-21T01:21:52.450Z,87.47
2018-12-21T01:22:52.469Z,87.38
2018-12-21T01:23:52.745Z,88.04
2018-12-21T01:24:52.760Z,87.66
2018-12-21T01:25:52.783Z,87.57
2018-12-21T01:26:52.547Z,87.38
2018-12-21T01:27:52.818Z,87.47
2018-12-21T01:28:52.837Z,87.42
2018-12-21T01:29:52.855Z,87.47
2018-12-21T01:30:52.616Z,87.19
2018-12-21T01:31:52.642Z,87.28
2018-12-21T01:32:52.656Z,87.28
2018-12-21T01:33:52.668Z,87.47
2018-12-21T01:34:52.784Z,87.19
2018-12-21T01:35:52.709Z,87.19
2018-12-21T01:36:52.989Z,87.09
2018-12-21T01:37:53.002Z,87.09
2018-12-21T01:38:52.765Z,87.38
2018-12-21T01:39:52.780Z,87.47
2018-12-21T01:40:52.799Z,87.28
2018-12-21T01:41:52.823Z,87.38
2018-12-21T01:42:52.840Z,87.47
2018-12-21T01:43:52.855Z,87.38
2018-12-21T01:44:52.876Z,87.38
2018-12-21T01:45:52.902Z,87.38
2018-12-21T01:46:53.167Z,87.61
2018-12-21T01:47:53.194Z,87.42
2018-12-21T01:48:52.943Z,87.28
2018-12-21T01:49:53.225Z,87.76
2018-12-21T01:50:53.238Z,87.19
2018-12-21T01:51:52.999Z,87.38
2018-12-21T01:52:53.286Z,87.76
2018-12-21T01:53:53.044Z,87.47
2018-12-21T01:54:53.196Z,87.76
2018-12-21T01:55:53.078Z,87.57
2018-12-21T01:56:53.104Z,87.76
2018-12-21T01:57:53.107Z,87.66
2018-12-21T01:58:53.129Z,86.9
2018-12-21T01:59:53.402Z,86.9
2018-12-21T02:00:53.172Z,86.71
2018-12-21T02:01:53.439Z,86.99
2018-12-21T02:02:53.202Z,87.09
2018-12-21T02:03:53.228Z,87.47
2018-12-21T02:04:53.247Z,87.47
2018-12-21T02:05:53.526Z,86.9
2018-12-21T02:06:53.546Z,86.9
2018-12-21T02:07:53.298Z,86.8
2018-12-21T02:08:53.580Z,87.09
2018-12-21T02:09:53.600Z,86.99
2018-12-21T02:10:53.359Z,87.28
2018-12-21T02:11:53.631Z,86.99
2018-12-21T02:12:53.386Z,87.19
2018-12-21T02:13:53.410Z,87.09
2018-12-21T02:14:53.431Z,87.38
2018-12-21T02:15:53.442Z,87.19
2018-12-21T02:16:53.458Z,87.09
2018-12-21T02:17:53.753Z,87.28
2018-12-21T02:18:53.495Z,87.19
2018-12-21T02:19:53.513Z,87.47
2018-12-21T02:20:53.794Z,87.09
2018-12-21T02:21:58.380Z,87.38
2018-12-21T02:22:53.578Z,87.28
2018-12-21T02:23:53.857Z,86.8
2018-12-21T02:24:53.866Z,86.8
2018-12-21T02:25:53.629Z,86.9
2018-12-21T02:26:53.641Z,86.9
2018-12-21T02:27:53.661Z,86.71
2018-12-21T02:28:53.682Z,87.28
2018-12-21T02:29:53.698Z,86.9
2018-12-21T02:30:53.974Z,86.9
2018-12-21T02:31:53.737Z,86.99
2018-12-21T02:32:54.034Z,86.76
2018-12-21T02:33:54.029Z,87.04
2018-12-21T02:34:53.791Z,86.99
2018-12-21T02:35:54.076Z,86.71
2018-12-21T02:36:54.097Z,86.71
2018-12-21T02:37:54.111Z,86.85
2018-12-21T02:38:53.871Z,86.71
2018-12-21T02:39:53.888Z,87.09
2018-12-21T02:40:54.171Z,86.66
2018-12-21T02:41:53.925Z,87.04
2018-12-21T02:42:53.939Z,86.09
2018-12-21T02:43:53.952Z,86.47
2018-12-21T02:44:53.979Z,86.33
2018-12-21T02:45:54.268Z,86.47
2018-12-21T02:46:54.273Z,86.43
2018-12-21T02:47:54.039Z,86.43
2018-12-21T02:48:54.303Z,86.47
2018-12-21T02:49:54.323Z,86.38
2018-12-21T02:50:54.355Z,86.38
2018-12-21T02:51:54.103Z,86.28
2018-12-21T02:52:54.131Z,86.47
2018-12-21T02:53:54.407Z,86.38
2018-12-21T02:54:54.167Z,86.28
2018-12-21T02:55:54.176Z,86.28
2018-12-21T02:56:54.462Z,86.33
2018-12-21T02:57:54.213Z,86.52
2018-12-21T02:58:54.229Z,86.47
2018-12-21T02:59:54.507Z,86.52
2018-12-21T03:00:54.531Z,86.52
2018-12-21T03:01:54.578Z,86.76
2018-12-21T03:02:54.315Z,86.66
2018-12-21T03:03:54.330Z,86.57
2018-12-21T03:04:54.617Z,86.85
2018-12-21T03:05:54.358Z,86.76
2018-12-21T03:06:54.380Z,86.85
2018-12-21T03:07:54.400Z,86.76
2018-12-21T03:08:54.675Z,86.09
2018-12-21T03:09:54.428Z,86.18
2018-12-21T03:10:54.725Z,86.09
2018-12-21T03:11:54.829Z,86.28
2018-12-21T03:12:54.747Z,86.18
2018-12-21T03:13:54.766Z,85.9
2018-12-21T03:14:54.921Z,86.28
2018-12-21T03:15:54.549Z,85.99
2018-12-21T03:16:54.567Z,86.18
2018-12-21T03:17:54.577Z,85.9
2018-12-21T03:18:54.876Z,86.18
2018-12-21T03:19:54.615Z,86.28
2018-12-21T03:20:54.642Z,86.28
2018-12-21T03:21:54.649Z,86.28
2018-12-21T03:22:54.685Z,86.28
2018-12-21T03:23:54.998Z,86.09
2018-12-21T03:24:54.968Z,85.99
2018-12-21T03:25:54.986Z,85.99
2018-12-21T03:26:54.748Z,85.99
2018-12-21T03:27:55.019Z,86.18
2018-12-21T03:28:55.035Z,86.18
2018-12-21T03:29:55.056Z,86.18
2018-12-21T03:30:54.837Z,86.47
2018-12-21T03:31:54.846Z,86.38
2018-12-21T03:32:55.055Z,86.33
2018-12-21T03:33:54.880Z,86.28
2018-12-21T03:34:55.168Z,86.38
2018-12-21T03:35:54.914Z,86.38
2018-12-21T03:36:54.927Z,86.28
2018-12-21T03:37:54.947Z,86.14
2018-12-21T03:38:55.242Z,86.28
2018-12-21T03:39:55.242Z,85.61
2018-12-21T03:40:55.269Z,86.24
2018-12-21T03:41:55.278Z,85.99
2018-12-21T03:42:55.042Z,85.9
2018-12-21T03:43:55.063Z,85.99
2018-12-21T03:44:55.080Z,85.71
2018-12-21T03:45:55.346Z,85.52
2018-12-21T03:46:55.370Z,85.52
2018-12-21T03:47:55.387Z,85.52
2018-12-21T03:48:55.407Z,85.52
2018-12-21T03:49:55.172Z,85.61
2018-12-21T03:50:55.187Z,85.8
2018-12-21T03:51:55.202Z,85.71
2018-12-21T03:52:55.482Z,85.42
2018-12-21T03:53:55.245Z,85.71
2018-12-21T03:54:55.255Z,85.71
2018-12-21T03:55:55.279Z,85.61
2018-12-21T03:56:55.293Z,85.9
2018-12-21T03:57:55.664Z,85.71
2018-12-21T03:58:55.591Z,85.61
2018-12-21T03:59:55.620Z,85.61
2018-12-21T04:00:55.628Z,85.8
2018-12-21T04:01:55.642Z,85.8
2018-12-21T04:02:55.671Z,85.8
2018-12-21T04:03:55.430Z,85.61
2018-12-21T04:04:55.444Z,85.71
2018-12-21T04:05:55.463Z,85.9
2018-12-21T04:06:55.744Z,85.61
2018-12-21T04:07:55.527Z,86.09
2018-12-21T04:08:55.916Z,85.61
2018-12-21T04:09:55.539Z,85.52
2018-12-21T04:10:55.548Z,85.04
2018-12-21T04:11:55.566Z,85.71
2018-12-21T04:12:55.844Z,85.61
2018-12-21T04:13:55.865Z,85.47
2018-12-21T04:14:55.886Z,85.38
2018-12-21T04:15:55.904Z,85.42
2018-12-21T04:16:56.074Z,85.52
2018-12-21T04:17:55.677Z,85.42
2018-12-21T04:18:55.701Z,85.42
2018-12-21T04:19:55.717Z,85.42
2018-12-21T04:20:56.000Z,85.42
2018-12-21T04:21:55.756Z,85.33
2018-12-21T04:22:55.768Z,85.71
2018-12-21T04:23:55.795Z,85.42
2018-12-21T04:24:55.806Z,85.52
2018-12-21T04:25:55.825Z,85.52
2018-12-21T04:26:55.843Z,85.71
2018-12-21T04:27:55.871Z,85.52
2018-12-21T04:28:55.886Z,85.52
2018-12-21T04:29:55.894Z,85.42
2018-12-21T04:30:56.174Z,85.42
2018-12-21T04:31:55.934Z,85.38
2018-12-21T04:32:55.962Z,85.71
2018-12-21T04:33:55.981Z,85.42
2018-12-21T04:34:55.988Z,85.42
2018-12-21T04:35:56.009Z,85.61
2018-12-21T04:36:56.030Z,85.42
2018-12-21T04:37:56.047Z,85.52
2018-12-21T04:38:56.073Z,85.42
2018-12-21T04:39:56.092Z,85.42
2018-12-21T04:40:56.369Z,85.52
2018-12-21T04:41:56.373Z,85.04
2018-12-21T04:42:56.135Z,85.24
2018-12-21T04:43:56.169Z,85.61
2018-12-21T04:44:56.444Z,85.14
2018-12-21T04:45:56.194Z,85.52
2018-12-21T04:46:56.207Z,85.71
2018-12-21T04:47:56.232Z,85.61
2018-12-21T04:48:56.515Z,85.42
2018-12-21T04:49:56.523Z,85.61
2018-12-21T04:50:56.285Z,85.52
2018-12-21T04:51:56.553Z,85.71
2018-12-21T04:52:56.574Z,85.71
2018-12-21T04:53:57.450Z,85.8
2018-12-21T04:54:56.615Z,85.8
2018-12-21T04:55:56.378Z,85.71
2018-12-21T04:56:56.648Z,85.8
2018-12-21T04:57:56.663Z,85.8
2018-12-21T04:58:56.681Z,85.8
2018-12-21T04:59:56.703Z,85.52
2018-12-21T05:00:56.720Z,85.71
2018-12-21T05:01:56.755Z,85.71
2018-12-21T05:02:56.522Z,85.71
2018-12-21T05:03:56.524Z,85.52
2018-12-21T05:04:56.534Z,85.61
2018-12-21T05:05:56.564Z,85.71
2018-12-21T05:06:56.972Z,85.61
2018-12-21T05:07:56.596Z,85.52
2018-12-21T05:08:56.868Z,85.8
2018-12-21T05:09:56.886Z,85.71
2018-12-21T05:10:56.908Z,85.61
2018-12-21T05:11:56.917Z,85.61
2018-12-21T05:12:56.945Z,85.61
2018-12-21T05:13:56.964Z,85.14
2018-12-21T05:14:56.988Z,84.95
2018-12-21T05:15:56.991Z,85.14
2018-12-21T05:16:56.756Z,84.76
2018-12-21T05:17:56.767Z,85.04
2018-12-21T05:18:57.053Z,84.95
2018-12-21T05:19:56.816Z,84.95
2018-12-21T05:20:57.085Z,85.04
2018-12-21T05:21:57.109Z,84.85
2018-12-21T05:22:57.123Z,84.95
2018-12-21T05:23:56.879Z,85.04
2018-12-21T05:24:57.161Z,84.95
2018-12-21T05:25:57.180Z,85.71
2018-12-21T05:26:57.208Z,85.14
2018-12-21T05:27:57.209Z,85.71
2018-12-21T05:28:57.232Z,84.95
2018-12-21T05:29:57.249Z,85.61
2018-12-21T05:30:57.271Z,85.8
2018-12-21T05:31:57.285Z,85.61
2018-12-21T05:32:57.314Z,85.24
2018-12-21T05:33:57.068Z,85.9
2018-12-21T05:34:57.170Z,85.8
2018-12-21T05:35:57.356Z,85.42
2018-12-21T05:36:57.118Z,85.33
2018-12-21T05:37:57.140Z,85.24
2018-12-21T05:38:57.155Z,85.33
2018-12-21T05:39:57.175Z,85.42
2018-12-21T05:40:57.207Z,85.52
2018-12-21T05:41:57.209Z,85.42
2018-12-21T05:42:57.503Z,85.52
2018-12-21T05:43:57.254Z,85.33
2018-12-21T05:44:57.264Z,85.42
2018-12-21T05:45:57.538Z,85.33
2018-12-21T05:46:57.568Z,85.52
2018-12-21T05:47:58.686Z,85.52
2018-12-21T05:48:57.370Z,85.42
2018-12-21T05:49:57.649Z,85.24
2018-12-21T05:50:57.419Z,85.52
2018-12-21T05:51:57.652Z,85.33
2018-12-21T05:53:03.319Z,85.42
2018-12-21T05:53:57.688Z,85.14
2018-12-21T05:54:57.458Z,85.14
2018-12-21T05:55:57.476Z,85.52
2018-12-21T05:56:57.757Z,85.33
2018-12-21T05:57:57.516Z,85.33
2018-12-21T05:58:57.526Z,85.14
2018-12-21T05:59:57.797Z,85.33
2018-12-21T06:00:57.557Z,85.52
2018-12-21T06:01:57.834Z,84.95
2018-12-21T06:02:57.866Z,85.42
2018-12-21T06:03:57.871Z,84.95
2018-12-21T06:04:57.887Z,85.14
2018-12-21T06:05:57.655Z,84.95
2018-12-21T06:06:57.665Z,85.33
2018-12-21T06:07:57.943Z,85.14
2018-12-21T06:08:57.705Z,85.33
2018-12-21T06:09:57.721Z,85.33
2018-12-21T06:10:57.739Z,85.24
2018-12-21T06:11:58.020Z,85.24
2018-12-21T06:12:58.038Z,84.95
2018-12-21T06:13:57.799Z,85.33
2018-12-21T06:14:57.825Z,85.33
2018-12-21T06:15:57.837Z,85.04
2018-12-21T06:16:58.139Z,85.8
2018-12-21T06:17:57.866Z,85.42
2018-12-21T06:18:57.883Z,85.24
2018-12-21T06:19:57.901Z,85.9
2018-12-21T06:20:57.919Z,85.71
2018-12-21T06:21:57.941Z,85.8
2018-12-21T06:22:57.986Z,85.04
2018-12-21T06:23:57.979Z,85.04
2018-12-21T06:24:57.993Z,84.95
2018-12-21T06:25:58.021Z,84.95
2018-12-21T06:26:58.295Z,85.61
2018-12-21T06:27:58.049Z,85.04
2018-12-21T06:28:58.070Z,84.95
2018-12-21T06:29:58.088Z,85.14
2018-12-21T06:30:58.365Z,84.95
2018-12-21T06:31:58.387Z,84.76
2018-12-21T06:32:58.400Z,85.71
2018-12-21T06:33:58.164Z,85.33
2018-12-21T06:34:58.177Z,85.52
2018-12-21T06:35:58.454Z,85.71
2018-12-21T06:36:58.474Z,85.52
2018-12-21T06:37:58.495Z,85.52
2018-12-21T06:38:58.515Z,85.8
2018-12-21T06:39:58.526Z,85.52
2018-12-21T06:40:58.544Z,85.52
2018-12-21T06:41:58.567Z,85.42
2018-12-21T06:42:58.325Z,85.42
2018-12-21T06:43:58.599Z,85.52
2018-12-21T06:44:58.614Z,85.42
2018-12-21T06:45:58.642Z,85.52
2018-12-21T06:46:58.659Z,85.42
2018-12-21T06:47:58.676Z,85.42
2018-12-21T06:48:58.432Z,85.42
2018-12-21T06:49:58.710Z,85.42
2018-12-21T06:50:58.477Z,85.52
2018-12-21T06:51:58.487Z,85.8
2018-12-21T06:52:58.768Z,85.14
2018-12-21T06:53:58.892Z,85.9
2018-12-21T06:54:58.548Z,85.61
2018-12-21T06:55:58.827Z,85.71
2018-12-21T06:56:58.835Z,85.52
2018-12-21T06:57:58.856Z,86.09
2018-12-21T06:58:58.873Z,86.09
2018-12-21T06:59:58.890Z,85.8
2018-12-21T07:01:00.683Z,85.9
2018-12-21T07:01:58.926Z,86.47
2018-12-21T07:02:58.949Z,85.99
2018-12-21T07:03:58.967Z,85.61
2018-12-21T07:04:58.987Z,86.09
2018-12-21T07:05:58.753Z,85.9
2018-12-21T07:06:59.018Z,85.52
2018-12-21T07:07:59.101Z,86.09
2018-12-21T07:08:58.801Z,86.28
2018-12-21T07:09:59.075Z,86.18
2018-12-21T07:10:59.094Z,86.18
2018-12-21T07:11:59.116Z,86.28
2018-12-21T07:12:59.140Z,85.99
2018-12-21T07:13:59.156Z,85.99
2018-12-21T07:14:59.174Z,85.99
2018-12-21T07:15:58.929Z,86.18
2018-12-21T07:16:59.204Z,86.28
2018-12-21T07:17:58.965Z,86.09
2018-12-21T07:18:59.238Z,86.85
2018-12-21T07:19:59.256Z,86.09
2018-12-21T07:20:59.282Z,85.9
2018-12-21T07:21:59.294Z,86.18
2018-12-21T07:22:59.311Z,86.09
2018-12-21T07:23:59.333Z,86.28
2018-12-21T07:24:59.363Z,86.18
2018-12-21T07:25:59.366Z,85.99
2018-12-21T07:26:59.386Z,85.99
2018-12-21T07:27:59.154Z,86.47
2018-12-21T07:28:59.250Z,86.18
2018-12-21T07:29:59.185Z,86.38
2018-12-21T07:30:59.208Z,86.18
2018-12-21T07:31:59.216Z,86.09
2018-12-21T07:32:59.241Z,86.76
2018-12-21T07:33:59.590Z,86.76
2018-12-21T07:34:59.300Z,86.76
2018-12-21T07:36:07.961Z,86.47
2018-12-21T07:36:59.570Z,86.57
2018-12-21T07:37:59.584Z,86.57
2018-12-21T07:38:59.602Z,86.28
2018-12-21T07:39:59.370Z,86.38
2018-12-21T07:40:59.387Z,86.57
2018-12-21T07:41:59.400Z,86.66
2018-12-21T07:42:59.519Z,86.47
2018-12-21T07:43:59.440Z,86.57
2018-12-21T07:44:59.465Z,86.38
2018-12-21T07:45:59.479Z,86.47
2018-12-21T07:46:59.501Z,86.38
2018-12-21T07:47:59.518Z,86.18
2018-12-21T07:48:59.793Z,86.38
2018-12-21T07:49:59.808Z,86.38
2018-12-21T07:50:59.822Z,86.28
2018-12-21T07:51:59.593Z,86.47
2018-12-21T07:52:59.876Z,86.47
2018-12-21T07:53:59.632Z,86.09
2018-12-21T07:54:59.659Z,86.38
2018-12-21T07:55:59.656Z,86.47
2018-12-21T07:56:59.677Z,86.47
2018-12-21T07:58:00.873Z,86.38
2018-12-21T07:58:59.973Z,86.76
2018-12-21T07:59:59.991Z,86.47
2018-12-21T08:01:00.018Z,87.04
2018-12-21T08:02:00.037Z,86.94
2018-12-21T08:03:00.161Z,86.66
2018-12-21T08:03:59.808Z,86.76
2018-12-21T08:04:59.829Z,86.94
2018-12-21T08:05:59.841Z,86.94
2018-12-21T08:06:59.858Z,86.94
2018-12-21T08:07:59.879Z,86.85
2018-12-21T08:08:59.896Z,86.85
2018-12-21T08:09:59.915Z,87.52
2018-12-21T08:10:59.938Z,87.13
2018-12-21T08:12:00.225Z,87.13
2018-12-21T08:13:00.233Z,87.04
2018-12-21T08:13:59.992Z,86.94
2018-12-21T08:15:00.266Z,86.94
2018-12-21T08:16:00.029Z,87.13
2018-12-21T08:17:00.302Z,87.23
2018-12-21T08:18:00.324Z,87.13
2018-12-21T08:19:00.341Z,87.13
2018-12-21T08:20:00.356Z,87.13
2018-12-21T08:21:00.381Z,87.52
2018-12-21T08:22:00.134Z,87.52
2018-12-21T08:23:00.154Z,87.23
2018-12-21T08:24:00.177Z,87.23
2018-12-21T08:25:00.196Z,87.23
2018-12-21T08:26:00.214Z,87.04
2018-12-21T08:27:00.503Z,87.23
2018-12-21T08:28:00.248Z,87.23
2018-12-21T08:29:00.267Z,87.32
2018-12-21T08:30:00.552Z,87.13
2018-12-21T08:31:00.298Z,87.23
2018-12-21T08:32:00.315Z,87.23
2018-12-21T08:33:00.336Z,87.13
2018-12-21T08:34:00.354Z,87.52
2018-12-21T08:35:00.372Z,87.52
2018-12-21T08:36:00.388Z,87.42
2018-12-21T08:37:00.417Z,87.42
2018-12-21T08:38:00.438Z,87.52
2018-12-21T08:39:00.452Z,87.71
2018-12-21T08:40:00.462Z,87.52
2018-12-21T08:41:00.757Z,87.61
2018-12-21T08:42:00.498Z,87.32
2018-12-21T08:43:00.523Z,87.32
2018-12-21T08:44:00.538Z,87.52
2018-12-21T08:45:00.554Z,87.9
2018-12-21T08:46:00.580Z,87.61
2018-12-21T08:47:00.850Z,87.8
2018-12-21T08:48:00.609Z,87.9
2018-12-21T08:49:00.629Z,87.99
2018-12-21T08:50:00.647Z,89.42
2018-12-21T08:51:00.710Z,89.23
2018-12-21T08:52:00.693Z,89.51
2018-12-21T08:53:00.805Z,89.51
2018-12-21T08:54:00.723Z,90.37
2018-12-21T08:55:00.738Z,90.23
2018-12-21T08:56:01.015Z,90.33
2018-12-21T08:57:00.775Z,90.99
2018-12-21T08:58:00.796Z,90.89
2018-12-21T08:59:00.859Z,90.8
2018-12-21T09:00:01.086Z,91.28
2018-12-21T09:01:00.862Z,91.37
2018-12-21T09:02:00.873Z,91.66
2018-12-21T09:03:00.892Z,91.37
2018-12-21T09:04:01.162Z,92.03
2018-12-21T09:05:01.182Z,91.47
2018-12-21T09:06:00.936Z,92.03
2018-12-21T09:07:00.955Z,92.22
2018-12-21T09:08:00.981Z,91.94
2018-12-21T09:09:01.266Z,92.03
2018-12-21T09:10:01.021Z,91.85
2018-12-21T09:11:01.301Z,91.85
2018-12-21T09:12:01.047Z,91.94
2018-12-21T09:13:01.065Z,91.94
2018-12-21T09:14:01.082Z,92.22
2018-12-21T09:15:01.109Z,92.22
2018-12-21T09:16:01.390Z,92.03
2018-12-21T09:17:01.404Z,92.99
2018-12-21T09:18:01.159Z,92.7
2018-12-21T09:19:01.177Z,91.94
2018-12-21T09:20:01.204Z,92.13
2018-12-21T09:21:01.470Z,92.8
2018-12-21T09:22:01.224Z,92.32
2018-12-21T09:23:01.259Z,92.13
2018-12-21T09:24:03.455Z,92.61
2018-12-21T09:25:01.544Z,92.89
2018-12-21T09:26:01.301Z,92.61
2018-12-21T09:27:01.322Z,93.08
2018-12-21T09:28:01.349Z,93.18
2018-12-21T09:29:01.356Z,92.8
2018-12-21T09:30:01.632Z,92.51
2018-12-21T09:31:01.661Z,92.99
2018-12-21T09:32:07.309Z,93.55
2018-12-21T09:33:01.440Z,93.08
2018-12-21T09:34:01.854Z,93.18
2018-12-21T09:35:01.724Z,93.75
2018-12-21T09:36:01.479Z,93.27
2018-12-21T09:37:01.500Z,93.75
2018-12-21T09:38:01.522Z,93.94
2018-12-21T09:39:01.791Z,94.22
2018-12-21T09:40:01.826Z,93.18
2018-12-21T09:41:01.826Z,93.55
2018-12-21T09:42:01.847Z,94.03
2018-12-21T09:43:01.876Z,94.03
2018-12-21T09:44:01.890Z,94.42
2018-12-21T09:45:01.641Z,94.7
2018-12-21T09:46:01.666Z,94.42
2018-12-21T09:47:01.679Z,94.22
2018-12-21T09:48:01.696Z,94.7
2018-12-21T09:49:01.728Z,94.42
2018-12-21T09:50:01.735Z,94.51
2018-12-21T09:51:02.008Z,94.7
2018-12-21T09:52:02.027Z,94.7
2018-12-21T09:53:02.041Z,94.7
2018-12-21T09:54:09.612Z,94.7
2018-12-21T09:55:01.835Z,94.22
2018-12-21T09:56:01.847Z,94.6
2018-12-21T09:57:01.856Z,94.79
2018-12-21T09:58:01.877Z,94.7
2018-12-21T09:59:01.903Z,94.7
2018-12-21T10:00:01.920Z,94.7
2018-12-21T10:01:02.224Z,94.6
2018-12-21T10:02:01.954Z,94.6
2018-12-21T10:03:01.969Z,94.51
2018-12-21T10:04:01.997Z,94.89
2018-12-21T10:05:02.261Z,94.03
2018-12-21T10:06:02.017Z,94.42
2018-12-21T10:07:02.036Z,94.13
2018-12-21T10:08:02.316Z,94.98
2018-12-21T10:09:02.388Z,94.42
2018-12-21T10:10:02.349Z,94.7
2018-12-21T10:11:02.108Z,94.79
2018-12-21T10:12:02.129Z,93.84
2018-12-21T10:13:02.407Z,94.51
2018-12-21T10:14:02.424Z,94.79
2018-12-21T10:15:02.447Z,94.79
2018-12-21T10:16:02.461Z,94.51
2018-12-21T10:17:02.489Z,94.22
2018-12-21T10:18:02.244Z,94.51
2018-12-21T10:19:02.516Z,94.03
2018-12-21T10:20:02.538Z,94.6
2018-12-21T10:21:02.565Z,94.89
2018-12-21T10:22:02.585Z,94.22
2018-12-21T10:23:02.330Z,94.32
2018-12-21T10:24:02.614Z,94.51
2018-12-21T10:25:02.641Z,94.13
2018-12-21T10:26:02.645Z,94.7
2018-12-21T10:27:02.410Z,94.89
2018-12-21T10:28:02.686Z,94.98
2018-12-21T10:29:02.441Z,94.42
2018-12-21T10:30:02.464Z,94.22
2018-12-21T10:31:02.485Z,94.42
2018-12-21T10:32:03.943Z,94.42
2018-12-21T10:33:02.525Z,94.32
2018-12-21T10:34:02.534Z,94.42
2018-12-21T10:35:02.556Z,94.22
2018-12-21T10:36:02.564Z,93.94
2018-12-21T10:37:02.758Z,93.94
2018-12-21T10:38:02.608Z,93.84
2018-12-21T10:39:02.618Z,93.94
2018-12-21T10:40:02.902Z,93.94
2018-12-21T10:41:02.663Z,94.13
2018-12-21T10:42:02.932Z,94.13
2018-12-21T10:43:02.692Z,94.13
2018-12-21T10:44:02.972Z,94.42
2018-12-21T10:45:02.728Z,94.13
2018-12-21T10:46:02.746Z,94.22
2018-12-21T10:47:02.765Z,94.22
2018-12-21T10:48:02.789Z,94.37
2018-12-21T10:49:02.807Z,93.98
2018-12-21T10:50:03.076Z,93.89
2018-12-21T10:51:03.098Z,94.08
2018-12-21T10:52:02.863Z,94.18
2018-12-21T10:53:03.130Z,94.08
2018-12-21T10:54:02.893Z,93.79
2018-12-21T10:55:02.922Z,93.23
2018-12-21T10:56:03.200Z,93.89
2018-12-21T10:57:03.220Z,93.23
2018-12-21T10:58:02.967Z,93.32
2018-12-21T10:59:02.981Z,93.51
2018-12-21T11:00:03.002Z,93.51
2018-12-21T11:01:03.096Z,93.98
2018-12-21T11:02:03.311Z,94.18
2018-12-21T11:03:03.315Z,94.08
2018-12-21T11:04:03.088Z,93.04
2018-12-21T11:05:03.093Z,93.7
2018-12-21T11:06:03.110Z,93.51
2018-12-21T11:07:03.129Z,94.27
2018-12-21T11:08:03.145Z,93.79
2018-12-21T11:09:03.169Z,93.7
2018-12-21T11:10:03.442Z,94.27
2018-12-21T11:11:03.210Z,93.79
2018-12-21T11:12:03.227Z,93.7
2018-12-21T11:13:03.244Z,93.6
2018-12-21T11:14:03.257Z,94.18
2018-12-21T11:15:03.550Z,93.98
2018-12-21T11:16:03.293Z,93.79
2018-12-21T11:17:03.581Z,93.89
2018-12-21T11:18:03.588Z,93.6
2018-12-21T11:19:03.610Z,93.94
2018-12-21T11:20:03.378Z,93.84
2018-12-21T11:21:03.654Z,94.18
2018-12-21T11:22:03.406Z,94.46
2018-12-21T11:23:03.438Z,93.79
2018-12-21T11:24:03.708Z,93.94
2018-12-21T11:25:03.470Z,94.03
2018-12-21T11:26:03.731Z,93.18
2018-12-21T11:27:03.500Z,93.37
2018-12-21T11:28:03.526Z,93.37
2018-12-21T11:29:03.794Z,93.65
2018-12-21T11:30:03.564Z,93.37
2018-12-21T11:31:03.830Z,93.55
2018-12-21T11:32:03.595Z,93.55
2018-12-21T11:33:03.610Z,93.55
2018-12-21T11:34:03.631Z,93.46
2018-12-21T11:35:03.909Z,93.46
2018-12-21T11:36:03.669Z,93.46
2018-12-21T11:37:03.681Z,93.37
2018-12-21T11:38:03.958Z,93.08
2018-12-21T11:39:03.996Z,93.65
2018-12-21T11:40:03.742Z,93.46
2018-12-21T11:41:04.034Z,93.84
2018-12-21T11:42:04.045Z,93.84
2018-12-21T11:43:03.793Z,93.55
2018-12-21T11:44:04.089Z,93.94
2018-12-21T11:45:04.091Z,93.27
2018-12-21T11:46:04.116Z,93.55
2018-12-21T11:47:03.866Z,93.37
2018-12-21T11:48:03.892Z,93.65
2018-12-21T11:49:03.907Z,93.27
2018-12-21T11:50:04.286Z,93.37
2018-12-21T11:51:03.944Z,92.79
2018-12-21T11:52:03.965Z,92.99
2018-12-21T11:53:03.985Z,93.74
2018-12-21T11:54:04.256Z,92.79
2018-12-21T11:55:04.293Z,94.42
2018-12-21T11:56:04.039Z,93.55
2018-12-21T11:57:04.069Z,93.27
2018-12-21T11:58:04.079Z,93.08
2018-12-21T11:59:04.359Z,92.7
2018-12-21T12:00:04.384Z,93.65
2018-12-21T12:01:04.384Z,92.89
2018-12-21T12:02:04.149Z,92.89
2018-12-21T12:03:04.434Z,93.55
2018-12-21T12:04:04.197Z,93.18
2018-12-21T12:05:05.366Z,92.89
2018-12-21T12:06:04.492Z,92.99
2018-12-21T12:07:04.336Z,92.7
2018-12-21T12:08:04.265Z,92.13
2018-12-21T12:09:08.786Z,92.7
2018-12-21T12:10:04.565Z,93.18
2018-12-21T12:11:04.320Z,93.94
2018-12-21T12:12:04.340Z,92.99
2018-12-21T12:13:04.358Z,92.41
2018-12-21T12:14:04.385Z,92.41
2018-12-21T12:15:04.387Z,93.55
2018-12-21T12:16:04.677Z,93.08
2018-12-21T12:17:04.427Z,93.84
2018-12-21T12:18:04.445Z,92.7
2018-12-21T12:19:04.468Z,93.08
2018-12-21T12:20:04.750Z,92.32
2018-12-21T12:21:04.501Z,94.6
2018-12-21T12:22:04.523Z,93.84
2018-12-21T12:23:04.799Z,94.98
2018-12-21T12:24:04.557Z,94.03
2018-12-21T12:25:04.574Z,93.46
2018-12-21T12:26:04.850Z,92.84
2018-12-21T12:27:04.674Z,94.46
2018-12-21T12:28:04.889Z,94.17
2018-12-21T12:29:04.649Z,94.84
2018-12-21T12:30:04.822Z,94.08
2018-12-21T12:31:04.701Z,93.79
2018-12-21T12:32:04.714Z,94.08
2018-12-21T12:33:04.985Z,94.84
2018-12-21T12:34:04.752Z,95.22
2018-12-21T12:35:05.019Z,94.27
2018-12-21T12:36:04.786Z,93.89
2018-12-21T12:37:04.801Z,93.6
2018-12-21T12:38:04.816Z,93.89
2018-12-21T12:39:04.844Z,92.74
2018-12-21T12:40:04.859Z,92.94
2018-12-21T12:41:09.118Z,92.74
2018-12-21T12:42:06.262Z,92.08
2018-12-21T12:43:05.177Z,92.36
2018-12-21T12:44:04.939Z,91.7
2018-12-21T12:45:04.956Z,92.18
2018-12-21T12:46:05.224Z,92.08
2018-12-21T12:47:05.001Z,92.18
2018-12-21T12:48:05.263Z,92.27
2018-12-21T12:49:05.025Z,91.6
2018-12-21T12:50:05.055Z,91.89
2018-12-21T12:51:05.068Z,91.41
2018-12-21T12:52:05.080Z,91.03
2018-12-21T12:53:05.365Z,91.03
2018-12-21T12:54:05.374Z,91.31
2018-12-21T12:55:05.525Z,91.22
2018-12-21T12:56:07.702Z,90.65